Time;durP1;ratioP1;P1;durP2;ratioP2;P2;SDS_P1;SDS_P2;PMS_P1;PMS_P2;Temp;Humidity;BMP_temperature;BMP_pressure;BME280_temperature;BME280_humidity;BME280_pressure;Samples;Min_cycle;Max_cycle;Signal;HPM_P1;HPM_P2
2023/05/08 00:01:39;;;;;;;3.03;0.30;;;;;;;4.98;53.57;103081.84;4961906;28;20081;-69
2023/05/08 00:04:05;;;;;;;5.38;0.55;;;;;;;4.94;53.29;103080.81;4960243;28;20763;-70
2023/05/08 00:06:34;;;;;;;2.40;0.40;;;;;;;4.94;53.29;103079.94;4962659;28;20066;-70
2023/05/08 00:09:00;;;;;;;2.33;0.55;;;;;;;4.94;53.09;103079.94;4961365;28;20054;-70
2023/05/08 00:11:28;;;;;;;3.20;0.35;;;;;;;4.93;53.18;103083.34;4960441;28;20503;-70
2023/05/08 00:13:54;;;;;;;3.55;0.50;;;;;;;4.91;53.13;103077.22;4961148;28;20046;-70
2023/05/08 00:16:21;;;;;;;3.33;0.57;;;;;;;4.89;53.05;103077.13;4942999;28;20054;-70
2023/05/08 00:18:48;;;;;;;1.38;0.40;;;;;;;4.88;53.46;103083.16;4962169;28;20046;-70
2023/05/08 00:21:15;;;;;;;0.50;0.30;;;;;;;4.83;53.31;103074.28;4960745;28;20423;-70
2023/05/08 00:23:43;;;;;;;3.60;0.40;;;;;;;4.85;53.38;103079.56;4960309;28;20058;-69
2023/05/08 00:26:10;;;;;;;1.08;0.38;;;;;;;4.84;53.32;103077.75;4960896;28;20059;-70
2023/05/08 00:28:37;;;;;;;3.63;0.50;;;;;;;4.80;53.34;103074.16;4960185;28;20057;-70
2023/05/08 00:31:04;;;;;;;2.05;0.50;;;;;;;4.81;53.20;103075.03;4961326;28;20060;-70
2023/05/08 00:33:31;;;;;;;0.60;0.43;;;;;;;4.79;53.46;103079.28;4959566;28;20514;-70
2023/05/08 00:36:01;;;;;;;2.95;0.40;;;;;;;4.63;53.27;103054.44;4959218;28;20527;-70
2023/05/08 00:38:30;;;;;;;3.65;0.30;;;;;;;4.78;53.22;103085.28;4961721;28;20050;-70
2023/05/08 00:40:58;;;;;;;0.40;0.35;;;;;;;4.77;53.25;103088.69;4948987;28;20455;-70
2023/05/08 00:43:27;;;;;;;1.13;0.40;;;;;;;4.76;53.09;103086.94;4960562;28;20074;-70
2023/05/08 00:45:55;;;;;;;3.15;0.60;;;;;;;4.75;53.35;103093.78;4961875;28;20102;-70
2023/05/08 00:48:22;;;;;;;0.90;0.50;;;;;;;4.74;53.25;103090.31;4961613;28;20050;-70
2023/05/08 00:50:50;;;;;;;1.38;0.30;;;;;;;4.72;53.15;103085.91;4960061;28;20055;-70
2023/05/08 00:53:17;;;;;;;2.85;0.40;;;;;;;4.71;53.37;103084.13;4961242;28;20909;-70
2023/05/08 00:55:45;;;;;;;2.78;0.30;;;;;;;4.71;53.59;103086.72;4950993;28;20663;-70
2023/05/08 00:58:13;;;;;;;2.65;0.60;;;;;;;4.70;53.49;103088.44;4960239;28;20050;-70
2023/05/08 01:00:42;;;;;;;0.95;0.45;;;;;;;4.70;52.92;103090.16;4961320;28;20076;-70
2023/05/08 01:03:10;;;;;;;0.85;0.45;;;;;;;4.69;53.20;103091.81;4960495;28;20054;-70
2023/05/08 01:05:37;;;;;;;0.80;0.40;;;;;;;4.68;53.43;103094.38;4962258;28;20062;-71
2023/05/08 01:08:05;;;;;;;2.65;0.50;;;;;;;4.67;53.37;103088.31;4961045;28;20053;-70
2023/05/08 01:10:37;;;;;;;0.90;0.40;;;;;;;4.67;53.20;103093.50;4961174;28;20504;-70
2023/05/08 01:13:15;;;;;;;3.45;0.55;;;;;;;4.67;53.02;103097.78;4959736;28;20771;-70
2023/05/08 01:15:48;;;;;;;4.60;0.38;;;;;;;4.65;53.09;103092.53;4960401;28;20141;-70
2023/05/08 01:18:21;;;;;;;0.65;0.65;;;;;;;4.65;53.31;103095.13;4958525;28;20059;-70
2023/05/08 01:20:56;;;;;;;0.68;0.40;;;;;;;4.64;53.51;103093.34;4960561;28;20065;-70
2023/05/08 01:24:04;;;;;;;1.02;0.40;;;;;;;4.64;53.43;103105.41;4959596;28;20054;-70
2023/05/08 01:26:50;;;;;;;4.13;0.40;;;;;;;4.61;53.04;103101.00;4960647;28;20074;-70
2023/05/08 01:30:07;;;;;;;0.75;0.50;;;;;;;4.60;53.20;103106.09;4960612;28;20050;-70
2023/05/08 01:32:36;;;;;;;;;;;;;;;4.59;52.93;103093.97;4945375;28;20054;-70
2023/05/08 01:35:13;;;;;;;0.90;0.43;;;;;;;4.56;53.02;103102.50;4959383;28;19930;-70
2023/05/08 01:37:49;;;;;;;1.23;0.40;;;;;;;4.53;53.26;103099.78;4960203;28;20058;-69
2023/05/08 01:40:25;;;;;;;1.65;0.40;;;;;;;4.54;53.24;103106.72;4957705;28;20058;-70
2023/05/08 01:43:01;;;;;;;4.47;0.45;;;;;;;4.52;53.39;103103.16;4960913;28;20051;-69
2023/05/08 01:45:33;;;;;;;2.78;0.52;;;;;;;4.53;53.50;103107.53;4960706;28;20848;-70
2023/05/08 01:48:05;;;;;;;0.52;0.40;;;;;;;4.50;53.80;103105.69;4960735;28;20057;-70
2023/05/08 01:50:38;;;;;;;1.38;0.50;;;;;;;4.51;53.50;103104.00;4961574;28;20058;-70
2023/05/08 01:53:17;;;;;;;3.13;0.40;;;;;;;4.50;53.88;103107.41;4957687;28;20046;-70
2023/05/08 01:55:47;;;;;;;1.33;0.40;;;;;;;4.50;53.49;103115.19;4957870;28;20109;-70
2023/05/08 01:58:15;;;;;;;3.00;0.43;;;;;;;4.50;53.57;103110.00;4958409;28;20054;-70
2023/05/08 02:00:44;;;;;;;0.32;0.30;;;;;;;4.49;54.04;103109.09;4958749;28;20051;-70
2023/05/08 02:03:15;;;;;;;1.52;0.50;;;;;;;4.48;53.73;103101.28;4957470;28;20483;-70
2023/05/08 02:05:44;;;;;;;0.30;0.30;;;;;;;4.47;53.92;103109.88;4958897;28;20476;-70
2023/05/08 02:08:13;;;;;;;2.05;0.40;;;;;;;4.47;54.18;103109.88;4959518;28;20133;-70
2023/05/08 02:10:41;;;;;;;1.83;0.40;;;;;;;4.47;54.23;103112.44;4958911;28;20054;-70
2023/05/08 02:13:10;;;;;;;2.72;1.30;;;;;;;4.44;53.93;103115.78;4958666;28;20053;-70
2023/05/08 02:15:39;;;;;;;1.90;0.35;;;;;;;4.43;54.24;103115.69;4960345;28;20065;-82
2023/05/08 02:18:08;;;;;;;2.17;0.60;;;;;;;4.42;54.30;103106.19;4974184;28;20173;-79
2023/05/08 02:20:37;;;;;;;1.73;0.50;;;;;;;4.42;54.48;103107.06;4973217;28;20058;-81
2023/05/08 02:23:05;;;;;;;1.60;0.55;;;;;;;4.41;54.20;103109.56;4973242;28;20510;-80
2023/05/08 02:25:33;;;;;;;2.83;0.50;;;;;;;4.40;54.41;103105.22;4963150;28;20054;-70
2023/05/08 02:28:01;;;;;;;2.05;0.47;;;;;;;4.40;54.31;103105.22;4958980;28;20054;-70
2023/05/08 02:30:29;;;;;;;1.30;0.40;;;;;;;4.39;54.75;103106.94;4958508;28;20422;-71
2023/05/08 02:32:58;;;;;;;0.80;0.60;;;;;;;4.36;54.63;103098.16;4958585;28;20704;-70
2023/05/08 02:35:27;;;;;;;1.30;0.50;;;;;;;4.37;54.79;103108.56;4957583;28;20077;-70
2023/05/08 02:37:57;;;;;;;1.45;0.50;;;;;;;4.36;54.86;103105.91;4959974;28;20062;-70
2023/05/08 02:40:27;;;;;;;2.45;0.55;;;;;;;4.32;54.57;103116.94;4958265;28;21217;-71
2023/05/08 02:42:55;;;;;;;5.35;1.63;;;;;;;4.32;54.65;103114.34;4968039;28;20062;-70
2023/05/08 02:45:26;;;;;;;4.95;0.63;;;;;;;4.29;54.63;103113.38;4989608;28;20049;-71
2023/05/08 02:48:01;;;;;;;1.35;0.90;;;;;;;4.27;54.69;103112.44;4986104;28;20127;-70
2023/05/08 02:50:36;;;;;;;0.90;0.57;;;;;;;4.27;54.67;103116.75;4986511;28;20485;-70
2023/05/08 02:53:09;;;;;;;5.37;0.40;;;;;;;4.26;55.25;103112.34;4987685;28;20042;-70
2023/05/08 02:55:42;;;;;;;1.30;0.52;;;;;;;4.24;55.20;103122.66;4983971;28;20133;-70
2023/05/08 02:58:16;;;;;;;0.80;0.60;;;;;;;4.24;55.25;103113.97;4983456;28;20053;-70
2023/05/08 03:00:53;;;;;;;1.05;0.70;;;;;;;4.21;55.37;103104.41;4989332;28;20080;-70
2023/05/08 03:03:25;;;;;;;0.70;0.47;;;;;;;4.22;55.16;103110.47;4986981;28;20109;-70
2023/05/08 03:05:55;;;;;;;1.77;0.50;;;;;;;4.20;55.47;103107.78;4988562;28;20047;-71
2023/05/08 03:08:26;;;;;;;3.35;0.50;;;;;;;4.19;55.60;103102.56;4986843;28;20531;-70
2023/05/08 03:10:57;;;;;;;2.22;0.40;;;;;;;4.19;55.44;103108.63;4987054;28;20116;-71
2023/05/08 03:13:27;;;;;;;2.83;0.40;;;;;;;4.18;55.60;103101.66;4986567;28;20558;-70
2023/05/08 03:15:57;;;;;;;1.08;0.50;;;;;;;4.16;55.52;103105.03;4988792;28;20520;-70
2023/05/08 03:18:29;;;;;;;1.13;0.47;;;;;;;4.15;55.79;103105.81;4990176;28;20050;-71
2023/05/08 03:20:59;;;;;;;1.33;0.60;;;;;;;4.13;55.63;103105.75;4986973;28;20557;-70
2023/05/08 03:23:29;;;;;;;3.20;0.60;;;;;;;4.10;55.72;103103.03;4986603;28;20054;-70
2023/05/08 03:25:58;;;;;;;3.72;0.47;;;;;;;4.09;56.15;103096.06;4987680;28;20344;-70
2023/05/08 03:28:27;;;;;;;1.73;0.50;;;;;;;4.09;56.34;103105.53;4987281;28;20462;-70
2023/05/08 03:30:56;;;;;;;0.73;0.50;;;;;;;4.09;55.64;103105.53;4987534;28;20053;-70
2023/05/08 03:33:24;;;;;;;0.85;0.60;;;;;;;4.06;56.34;103104.56;4988993;28;20058;-70
2023/05/08 03:35:51;;;;;;;0.70;0.57;;;;;;;4.06;55.91;103102.00;4985352;28;20053;-71
2023/05/08 03:38:18;;;;;;;2.50;0.40;;;;;;;4.06;56.26;103101.13;4986008;28;20042;-70
2023/05/08 03:40:48;;;;;;;3.88;0.47;;;;;;;4.05;56.69;103104.53;4985074;28;20062;-69
2023/05/08 03:43:16;;;;;;;3.25;0.63;;;;;;;4.04;56.48;103100.16;4985421;28;20428;-70
2023/05/08 03:45:45;;;;;;;0.77;0.57;;;;;;;4.06;57.00;103103.69;4987399;28;20554;-70
2023/05/08 03:48:13;;;;;;;1.02;0.60;;;;;;;4.07;56.74;103108.06;4985036;28;20054;-70
2023/05/08 03:50:40;;;;;;;5.03;0.55;;;;;;;4.06;56.67;103101.13;4986102;28;20414;-70
2023/05/08 03:53:07;;;;;;;2.90;0.50;;;;;;;4.04;57.40;103098.47;4986330;28;20058;-70
2023/05/08 03:55:33;;;;;;;1.55;0.80;;;;;;;4.08;57.29;103096.91;4984700;28;20047;-70
2023/05/08 03:58:16;;;;;;;2.83;0.80;;;;;;;4.12;57.57;103103.97;4988415;28;20050;-70
2023/05/08 04:00:54;;;;;;;1.70;0.70;;;;;;;4.14;57.54;103104.06;4990476;28;20249;-73
2023/05/08 04:03:27;;;;;;;3.22;0.68;;;;;;;4.12;58.22;103096.22;4991608;28;20671;-72
2023/05/08 04:06:01;;;;;;;1.40;0.60;;;;;;;4.18;58.25;103101.66;4989948;28;20050;-72
2023/05/08 04:08:31;;;;;;;4.40;0.52;;;;;;;4.24;58.53;103104.53;4989465;28;20105;-72
2023/05/08 04:11:09;;;;;;;1.25;0.70;;;;;;;4.29;58.94;103097.84;4989043;28;20079;-72
2023/05/08 04:13:45;;;;;;;1.95;0.93;;;;;;;4.36;59.10;103100.75;4988248;28;20101;-72
2023/05/08 04:16:20;;;;;;;8.10;0.73;;;;;;;4.42;59.47;103101.00;4988540;28;20046;-72
2023/05/08 04:18:49;;;;;;;1.92;0.70;;;;;;;4.50;59.53;103102.22;4990092;28;20826;-72
2023/05/08 04:21:25;;;;;;;1.55;0.73;;;;;;;4.60;59.55;103103.50;4989848;28;20042;-72
2023/05/08 04:23:53;;;;;;;1.40;0.60;;;;;;;4.68;59.53;103096.97;4992334;28;20054;-72
2023/05/08 04:26:21;;;;;;;0.90;0.50;;;;;;;4.78;59.84;103100.81;4990742;28;20495;-72
2023/05/08 04:28:49;;;;;;;1.52;0.55;;;;;;;4.89;59.25;103104.75;4989865;28;20047;-72
2023/05/08 04:31:18;;;;;;;4.97;0.80;;;;;;;5.00;59.63;103097.44;4986164;28;20054;-72
2023/05/08 04:33:45;;;;;;;2.50;0.82;;;;;;;5.12;59.62;103100.53;4990813;28;20050;-73
2023/05/08 04:36:13;;;;;;;1.80;0.52;;;;;;;5.24;59.56;103098.47;4988027;28;20057;-72
2023/05/08 04:38:40;;;;;;;2.15;0.70;;;;;;;5.35;59.32;103097.19;4988660;28;20113;-71
2023/05/08 04:41:07;;;;;;;1.35;0.88;;;;;;;5.48;59.21;103097.66;4989983;28;20055;-71
2023/05/08 04:43:35;;;;;;;5.95;0.77;;;;;;;5.62;59.80;103097.38;4988693;28;20050;-71
2023/05/08 04:46:05;;;;;;;3.13;0.77;;;;;;;5.77;59.19;103097.09;4988504;28;20517;-71
2023/05/08 04:48:32;;;;;;;3.05;0.55;;;;;;;5.94;59.25;103105.53;4988718;28;20042;-71
2023/05/08 04:50:59;;;;;;;4.20;0.60;;;;;;;6.07;59.13;103100.00;4987861;28;20056;-73
2023/05/08 04:53:26;;;;;;;1.45;0.70;;;;;;;6.24;58.83;103091.97;4990746;28;20056;-72
2023/05/08 04:55:53;;;;;;;3.55;0.70;;;;;;;6.40;58.82;103093.38;4988287;28;20038;-72
2023/05/08 04:58:20;;;;;;;1.40;0.60;;;;;;;6.56;58.58;103098.28;4990460;28;20066;-71
2023/05/08 05:00:47;;;;;;;3.20;0.85;;;;;;;6.71;58.41;103097.94;4987325;28;20075;-72
2023/05/08 05:03:15;;;;;;;0.80;0.60;;;;;;;6.88;58.01;103098.53;4989479;28;20140;-72
2023/05/08 05:05:42;;;;;;;5.60;0.60;;;;;;;7.01;58.22;103094.66;4989758;28;20547;-71
2023/05/08 05:08:09;;;;;;;2.45;0.50;;;;;;;7.15;57.80;103108.97;4989425;28;20498;-71
2023/05/08 05:10:36;;;;;;;2.35;0.80;;;;;;;7.27;57.74;103101.56;4984071;28;20077;-72
2023/05/08 05:13:02;;;;;;;3.63;1.13;;;;;;;7.43;57.38;103096.03;4990232;28;20474;-71
2023/05/08 05:15:29;;;;;;;5.63;0.57;;;;;;;7.58;57.00;103102.56;4988952;28;20046;-71
2023/05/08 05:17:56;;;;;;;3.20;0.93;;;;;;;7.72;56.92;103101.25;4988449;28;20050;-71
2023/05/08 05:20:24;;;;;;;2.42;0.70;;;;;;;7.85;56.42;103103.41;4987387;28;20051;-72
2023/05/08 05:22:51;;;;;;;2.63;0.80;;;;;;;7.99;56.08;103100.31;4987791;28;20054;-71
2023/05/08 05:25:18;;;;;;;4.22;0.70;;;;;;;8.13;55.88;103098.13;4988865;28;20559;-71
2023/05/08 05:27:45;;;;;;;3.25;0.60;;;;;;;8.24;55.46;103100.19;4989404;28;20499;-71
2023/05/08 05:30:12;;;;;;;5.55;0.70;;;;;;;8.35;55.17;103100.50;4987953;28;20050;-71
2023/05/08 05:32:39;;;;;;;1.25;0.73;;;;;;;8.46;54.90;103100.84;4989314;28;20058;-71
2023/05/08 05:35:07;;;;;;;3.85;0.70;;;;;;;8.57;54.52;103099.41;4987625;28;20402;-71
2023/05/08 05:37:35;;;;;;;2.28;0.70;;;;;;;8.66;54.31;103101.38;4986802;28;20050;-71
2023/05/08 05:40:02;;;;;;;3.15;0.90;;;;;;;8.73;54.01;103098.06;4989418;28;20050;-71
2023/05/08 05:42:29;;;;;;;4.70;0.60;;;;;;;8.83;53.78;103099.22;4987280;28;20388;-71
2023/05/08 05:44:55;;;;;;;5.65;1.05;;;;;;;8.91;53.68;103097.69;4989305;28;20046;-71
2023/05/08 05:47:22;;;;;;;2.03;0.60;;;;;;;8.97;53.31;103092.63;4985737;28;20956;-71
2023/05/08 05:49:49;;;;;;;3.53;0.63;;;;;;;9.06;53.13;103094.59;4982990;28;20049;-71
2023/05/08 05:52:16;;;;;;;5.13;0.50;;;;;;;9.12;53.25;103098.22;4978894;28;20056;-71
2023/05/08 05:54:45;;;;;;;3.53;0.63;;;;;;;9.16;52.70;103089.66;4988151;28;20518;-72
2023/05/08 05:57:12;;;;;;;5.65;0.80;;;;;;;9.23;52.46;103098.50;4984892;28;20043;-72
2023/05/08 05:59:39;;;;;;;0.60;0.40;;;;;;;9.28;52.68;103090.75;4985197;28;20050;-71
2023/05/08 06:02:06;;;;;;;0.95;0.50;;;;;;;9.34;52.64;103098.75;4986216;28;20049;-72
2023/05/08 06:04:33;;;;;;;4.50;0.95;;;;;;;9.39;52.00;103097.09;4985512;28;20054;-72
2023/05/08 06:07:00;;;;;;;2.67;0.43;;;;;;;9.42;51.88;103097.19;4988166;28;20054;-71
2023/05/08 06:09:27;;;;;;;2.10;0.57;;;;;;;9.44;52.11;103095.50;4987742;28;20380;-71
2023/05/08 06:11:55;;;;;;;2.00;0.60;;;;;;;9.50;51.94;103095.63;4988313;28;20189;-72
2023/05/08 06:14:22;;;;;;;9.43;5.65;;;;;;;9.53;51.36;103095.69;4986034;28;20434;-71
2023/05/08 06:16:49;;;;;;;8.35;1.58;;;;;;;9.57;51.46;103094.06;4986702;28;20138;-72
2023/05/08 06:19:16;;;;;;;3.40;0.50;;;;;;;9.60;51.41;103089.78;4987633;28;20050;-72
2023/05/08 06:21:43;;;;;;;6.22;0.70;;;;;;;9.65;51.48;103090.78;4986816;28;20388;-72
2023/05/08 06:24:10;;;;;;;4.72;0.70;;;;;;;9.68;51.09;103096.06;4988272;28;20065;-72
2023/05/08 06:26:37;;;;;;;3.33;0.50;;;;;;;9.71;50.83;103078.72;4988049;28;20056;-73
2023/05/08 06:29:05;;;;;;;4.10;0.70;;;;;;;9.74;50.68;103094.44;4987686;28;20061;-72
2023/05/08 06:31:32;;;;;;;2.17;0.50;;;;;;;9.77;50.99;103090.16;4987652;28;20050;-73
2023/05/08 06:33:59;;;;;;;3.38;0.60;;;;;;;9.80;50.67;103084.13;4986708;28;20061;-73
2023/05/08 06:36:26;;;;;;;3.15;0.40;;;;;;;9.82;50.96;103079.84;4987755;28;20721;-72
2023/05/08 06:38:53;;;;;;;2.65;0.60;;;;;;;9.85;50.39;103090.34;4988929;28;20046;-73
2023/05/08 06:41:20;;;;;;;10.05;1.70;;;;;;;9.88;50.59;103082.56;4986406;28;20558;-72
2023/05/08 06:43:47;;;;;;;2.83;0.45;;;;;;;9.91;50.29;103078.28;4986294;28;20070;-71
2023/05/08 06:46:15;;;;;;;2.20;0.40;;;;;;;9.95;50.39;103080.97;4987925;28;20046;-72
2023/05/08 06:48:42;;;;;;;0.93;0.57;;;;;;;9.99;50.24;103083.69;4988362;28;20061;-72
2023/05/08 06:51:09;;;;;;;3.83;0.70;;;;;;;10.03;50.50;103082.88;4987123;28;20053;-72
2023/05/08 06:53:36;;;;;;;4.40;1.20;;;;;;;10.08;49.79;103076.03;4989271;28;20510;-72
2023/05/08 06:56:03;;;;;;;5.32;0.95;;;;;;;10.14;50.09;103072.66;4983538;28;20053;-72
2023/05/08 06:58:31;;;;;;;4.88;0.73;;;;;;;10.20;49.73;103071.91;4988938;28;20042;-72
2023/05/08 07:00:59;;;;;;;7.10;0.70;;;;;;;10.26;49.79;103070.28;4987316;28;20161;-72
2023/05/08 07:03:28;;;;;;;1.67;0.50;;;;;;;10.38;49.42;103068.81;4984051;28;20062;-71
2023/05/08 07:05:55;;;;;;;5.07;0.95;;;;;;;10.47;49.18;103072.50;4987505;28;20494;-72
2023/05/08 07:08:22;;;;;;;4.82;0.50;;;;;;;10.56;49.17;103067.44;4986215;28;20038;-72
2023/05/08 07:10:49;;;;;;;3.28;0.80;;;;;;;10.63;49.64;103064.91;4986487;28;20057;-72
2023/05/08 07:13:20;;;;;;;12.20;1.20;;;;;;;10.73;49.18;103067.72;4987584;28;20503;-72
2023/05/08 07:15:47;;;;;;;1.75;0.50;;;;;;;10.84;49.58;103062.66;4986640;28;20140;-72
2023/05/08 07:18:14;;;;;;;2.70;0.73;;;;;;;11.02;49.51;103060.38;4986395;28;20105;-72
2023/05/08 07:20:42;;;;;;;3.30;0.52;;;;;;;11.19;49.12;103059.75;4987921;28;20049;-72
2023/05/08 07:23:10;;;;;;;6.25;0.60;;;;;;;11.35;49.17;103053.88;4986217;28;20065;-72
2023/05/08 07:25:37;;;;;;;2.45;0.60;;;;;;;11.51;49.73;103060.22;4989092;28;20479;-72
2023/05/08 07:28:05;;;;;;;2.53;0.70;;;;;;;11.65;48.47;103045.59;4988039;28;20050;-72
2023/05/08 07:30:32;;;;;;;4.63;0.65;;;;;;;11.79;48.60;103055.38;4986131;28;20728;-72
2023/05/08 07:32:59;;;;;;;2.85;1.15;;;;;;;11.91;48.34;103056.44;4988981;28;20050;-72
2023/05/08 07:35:26;;;;;;;0.88;0.40;;;;;;;12.06;47.62;103049.63;4966312;28;20513;-72
2023/05/08 07:37:54;;;;;;;7.22;1.25;;;;;;;12.20;47.94;103053.28;4992497;28;20046;-72
2023/05/08 07:40:21;;;;;;;1.75;0.30;;;;;;;12.35;47.92;103052.56;4991533;28;20487;-72
2023/05/08 07:42:48;;;;;;;0.70;0.43;;;;;;;12.52;47.56;103055.34;4992609;28;20506;-72
2023/05/08 07:45:15;;;;;;;3.90;1.00;;;;;;;12.69;47.52;103047.66;4991073;28;20050;-72
2023/05/08 07:47:49;;;;;;;3.60;0.47;;;;;;;12.86;47.30;103045.19;4990945;28;20046;-72
2023/05/08 07:50:16;;;;;;;1.83;0.60;;;;;;;12.99;46.86;103045.28;4991094;28;20510;-72
2023/05/08 07:52:43;;;;;;;2.90;0.70;;;;;;;13.14;46.75;103044.53;4989406;28;20051;-72
2023/05/08 07:55:12;;;;;;;0.85;0.40;;;;;;;13.28;46.60;103044.66;4992577;28;20042;-72
2023/05/08 07:57:39;;;;;;;1.20;0.50;;;;;;;13.41;46.22;103046.50;4990676;28;20557;-72
2023/05/08 08:00:08;;;;;;;2.20;0.40;;;;;;;13.55;45.40;103043.97;4989661;28;20046;-73
2023/05/08 08:02:35;;;;;;;5.07;0.38;;;;;;;13.63;45.49;103041.34;4992764;28;20057;-72
2023/05/08 08:05:02;;;;;;;2.03;0.43;;;;;;;13.75;45.56;103038.81;4991294;28;20054;-72
2023/05/08 08:07:31;;;;;;;3.80;0.40;;;;;;;13.81;45.61;103036.19;4991727;28;20050;-72
2023/05/08 08:09:58;;;;;;;4.47;0.40;;;;;;;13.90;45.43;103038.00;4988057;28;20165;-72
2023/05/08 08:12:27;;;;;;;0.60;0.40;;;;;;;13.94;45.54;103031.84;4990965;28;20045;-71
2023/05/08 08:14:54;;;;;;;2.42;0.40;;;;;;;14.05;45.48;103029.28;4990250;28;20176;-72
2023/05/08 08:17:21;;;;;;;0.60;0.38;;;;;;;14.12;45.16;103034.56;4989180;28;20045;-72
2023/05/08 08:19:48;;;;;;;3.33;0.60;;;;;;;14.20;44.38;103023.19;4990576;28;20466;-72
2023/05/08 08:22:15;;;;;;;2.78;1.10;;;;;;;14.25;44.77;103026.69;4989967;28;20058;-73
2023/05/08 08:24:42;;;;;;;3.20;0.65;;;;;;;14.32;44.69;103017.97;4989654;28;20054;-72
2023/05/08 08:27:09;;;;;;;4.15;0.40;;;;;;;14.35;44.22;103028.47;4990275;28;20054;-72
2023/05/08 08:29:37;;;;;;;1.33;0.50;;;;;;;14.33;44.06;103023.22;4989393;28;20054;-72
2023/05/08 08:32:05;;;;;;;2.38;0.40;;;;;;;14.32;43.71;103017.97;4988505;28;20050;-72
2023/05/08 08:34:33;;;;;;;3.35;0.50;;;;;;;14.29;44.06;103013.56;4987985;28;20455;-72
2023/05/08 08:37:00;;;;;;;2.05;0.47;;;;;;;14.32;44.27;103023.22;4991275;28;20054;-72
2023/05/08 08:39:27;;;;;;;4.78;0.68;;;;;;;14.34;43.89;103013.56;4987940;28;20057;-73
2023/05/08 08:41:54;;;;;;;3.17;0.50;;;;;;;14.36;44.16;103011.81;4990379;28;20046;-73
2023/05/08 08:44:21;;;;;;;3.65;0.47;;;;;;;14.39;43.86;103014.44;4985919;28;20466;-72
2023/05/08 08:46:52;;;;;;;2.58;0.40;;;;;;;14.42;43.54;103009.19;4990118;28;20042;-72
2023/05/08 08:49:23;;;;;;;3.10;0.50;;;;;;;14.44;43.15;103009.22;4989065;28;20051;-72
2023/05/08 08:51:52;;;;;;;0.95;0.40;;;;;;;14.47;43.63;103007.44;4991120;28;20055;-72
2023/05/08 08:54:23;;;;;;;5.10;0.70;;;;;;;14.48;43.09;103009.19;4988384;28;20054;-72
2023/05/08 08:56:51;;;;;;;1.65;0.47;;;;;;;14.50;43.77;103007.44;4989805;28;20046;-73
2023/05/08 08:59:18;;;;;;;1.65;0.40;;;;;;;14.52;43.38;103010.13;4988001;28;20046;-72
2023/05/08 09:01:50;;;;;;;0.95;0.40;;;;;;;14.54;43.15;103004.00;4989650;28;20046;-72
2023/05/08 09:04:18;;;;;;;4.38;1.02;;;;;;;14.58;43.63;103007.50;4989031;28;20562;-72
2023/05/08 09:06:46;;;;;;;2.60;0.60;;;;;;;14.60;43.26;102996.09;4993258;28;20050;-72
2023/05/08 09:09:13;;;;;;;4.13;0.40;;;;;;;14.65;43.14;102997.84;4989168;28;20057;-72
2023/05/08 09:11:41;;;;;;;1.45;0.50;;;;;;;14.66;42.37;102994.34;4986952;28;20050;-71
2023/05/08 09:14:08;;;;;;;2.95;0.50;;;;;;;14.69;42.75;102984.72;4988113;28;20459;-72
2023/05/08 09:16:35;;;;;;;1.92;0.50;;;;;;;14.74;42.74;102988.22;4990353;28;20053;-72
2023/05/08 09:19:03;;;;;;;3.05;0.50;;;;;;;14.80;42.62;102987.34;4984824;28;20042;-71
2023/05/08 09:21:32;;;;;;;1.27;0.40;;;;;;;14.87;42.57;102982.94;4989234;28;20050;-72
2023/05/08 09:24:01;;;;;;;1.92;0.38;;;;;;;14.92;42.39;102982.06;4987210;28;20053;-73
2023/05/08 09:26:31;;;;;;;1.10;0.60;;;;;;;14.98;42.59;102971.50;4991445;28;20450;-72
2023/05/08 09:29:11;;;;;;;1.48;0.40;;;;;;;15.05;42.78;102978.53;4987658;28;20399;-72
2023/05/08 09:31:39;;;;;;;1.15;0.40;;;;;;;15.09;42.04;102973.25;4989088;28;20100;-72
2023/05/08 09:34:07;;;;;;;1.85;0.98;;;;;;;15.12;41.93;102970.63;4989535;28;20057;-72
2023/05/08 09:36:35;;;;;;;1.13;0.40;;;;;;;15.18;41.86;102962.69;4986442;28;20112;-72
2023/05/08 09:39:03;;;;;;;1.70;0.50;;;;;;;15.24;41.43;102965.31;4988800;28;20053;-72
2023/05/08 09:41:30;;;;;;;3.60;0.70;;;;;;;15.29;41.22;102960.91;4985963;28;20046;-72
2023/05/08 09:44:04;;;;;;;0.65;0.30;;;;;;;15.32;40.15;102963.53;4989979;28;20054;-72
2023/05/08 09:46:32;;;;;;;0.50;0.40;;;;;;;15.37;39.96;102964.41;4987664;28;20136;-72
2023/05/08 09:49:01;;;;;;;0.70;0.38;;;;;;;15.38;39.63;102966.16;4988835;28;20054;-72
2023/05/08 09:51:30;;;;;;;1.55;0.50;;;;;;;15.40;39.34;102967.03;4991178;28;20038;-72
2023/05/08 09:54:02;;;;;;;0.55;0.32;;;;;;;15.41;38.97;102963.50;4989987;28;20114;-72
2023/05/08 09:56:34;;;;;;;2.00;0.50;;;;;;;15.44;38.31;102959.97;4987461;28;20046;-72
2023/05/08 09:59:02;;;;;;;1.25;0.30;;;;;;;15.46;37.92;102956.47;4988699;28;20046;-72
2023/05/08 10:01:31;;;;;;;2.30;0.40;;;;;;;15.50;37.85;102963.44;4988220;28;20173;-72
2023/05/08 10:03:59;;;;;;;2.78;0.30;;;;;;;15.53;37.48;102954.66;4987249;28;20061;-72
2023/05/08 10:06:27;;;;;;;0.60;0.38;;;;;;;15.58;37.49;102967.81;4988634;28;20057;-72
2023/05/08 10:09:09;;;;;;;2.15;0.43;;;;;;;15.59;37.25;102952.00;4989843;28;20053;-72
2023/05/08 10:11:36;;;;;;;3.35;0.50;;;;;;;15.61;37.19;102952.00;4985170;28;20046;-72
2023/05/08 10:14:03;;;;;;;1.45;0.65;;;;;;;15.66;36.81;102960.78;4989585;28;20126;-72
2023/05/08 10:16:31;;;;;;;2.35;0.40;;;;;;;15.67;36.79;102954.59;4989219;28;20703;-72
2023/05/08 10:19:04;;;;;;;1.58;0.40;;;;;;;15.69;36.78;102948.47;4987478;28;20053;-71
2023/05/08 10:21:36;;;;;;;2.60;0.40;;;;;;;15.69;36.12;102958.16;4987055;28;20070;-72
2023/05/08 10:24:06;;;;;;;3.65;0.40;;;;;;;15.67;35.75;102950.22;4987393;28;20054;-71
2023/05/08 10:26:42;;;;;;;1.52;0.70;;;;;;;15.67;35.89;102959.88;4986286;28;20046;-72
2023/05/08 10:29:17;;;;;;;1.25;0.52;;;;;;;15.68;35.19;102940.56;4985968;28;20054;-72
2023/05/08 10:31:45;;;;;;;0.30;0.30;;;;;;;15.68;35.40;102948.47;4988405;28;20062;-72
2023/05/08 10:34:18;;;;;;;0.75;0.22;;;;;;;15.69;34.91;102939.72;4988897;28;20042;-72
2023/05/08 10:36:46;;;;;;;8.02;0.40;;;;;;;15.69;35.04;102939.72;4986112;28;20507;-72
2023/05/08 10:39:14;;;;;;;2.83;0.40;;;;;;;15.69;35.03;102939.72;4986951;28;20150;-72
2023/05/08 10:41:43;;;;;;;2.15;0.40;;;;;;;15.71;34.64;102940.59;4986370;28;20411;-72
2023/05/08 10:44:10;;;;;;;1.52;0.50;;;;;;;15.71;34.33;102937.94;4985634;28;20050;-72
2023/05/08 10:46:44;;;;;;;0.82;0.30;;;;;;;15.73;34.31;102939.66;4986538;28;20045;-72
2023/05/08 10:49:19;;;;;;;3.83;0.45;;;;;;;15.73;34.21;102939.66;4989410;28;20045;-72
2023/05/08 10:51:51;;;;;;;;;;;;;;;15.75;34.56;102937.03;4990466;28;20057;-71
2023/05/08 10:54:26;;;;;;;4.43;1.58;;;;;;;15.73;33.97;102938.78;4986867;28;20389;-72
2023/05/08 10:57:08;;;;;;;4.88;0.50;;;;;;;15.74;34.12;102930.03;4988172;28;20057;-73
2023/05/08 10:59:36;;;;;;;3.17;0.30;;;;;;;15.72;33.98;102927.38;4987094;28;20466;-72
2023/05/08 11:02:04;;;;;;;4.65;0.40;;;;;;;15.73;33.29;102928.25;4987800;28;20461;-72
2023/05/08 11:04:31;;;;;;;1.35;0.38;;;;;;;15.70;33.22;102933.53;4985779;28;20128;-72
2023/05/08 11:06:58;;;;;;;2.90;0.40;;;;;;;15.70;33.21;102930.91;4986155;28;20049;-73
2023/05/08 11:09:28;;;;;;;1.33;0.70;;;;;;;15.70;33.44;102923.00;4988123;28;20487;-72
2023/05/08 11:12:08;;;;;;;4.10;0.52;;;;;;;15.72;33.48;102931.78;4988611;28;20050;-72
2023/05/08 11:14:38;;;;;;;0.73;0.40;;;;;;;15.70;33.06;102928.28;4991329;28;20518;-72
2023/05/08 11:17:07;;;;;;;0.45;0.40;;;;;;;15.69;33.01;102923.91;4992584;28;20057;-72
2023/05/08 11:19:34;;;;;;;1.33;0.40;;;;;;;15.69;33.14;102922.13;4992020;28;20604;-72
2023/05/08 11:22:25;;;;;;;2.20;0.40;;;;;;;15.65;33.38;102908.94;4990707;28;20557;-72
2023/05/08 11:24:55;;;;;;;6.10;0.40;;;;;;;15.69;33.13;102916.00;4991461;28;20440;-72
2023/05/08 11:28:16;;;;;;;3.60;0.40;;;;;;;15.73;33.34;102912.44;4992202;28;20089;-72
2023/05/08 11:30:44;;;;;;;2.45;0.40;;;;;;;15.73;33.65;102913.31;4990853;28;20077;-72
2023/05/08 11:33:16;;;;;;;7.10;0.40;;;;;;;15.77;33.79;102918.56;4988060;28;20052;-72
2023/05/08 11:35:48;;;;;;;1.50;0.40;;;;;;;15.78;32.89;102926.47;4989815;28;20047;-72
2023/05/08 11:38:17;;;;;;;1.63;0.32;;;;;;;15.78;32.80;102917.69;4991970;28;20052;-72
2023/05/08 11:40:55;;;;;;;2.58;0.40;;;;;;;15.78;32.77;102910.66;4991492;28;20850;-71